createdAt,value
2023-03-21T00:01:28.308Z,13.21
2023-03-21T00:03:30.759Z,13.17
2023-03-21T00:05:32.504Z,13.17
2023-03-21T00:07:34.140Z,13.11
2023-03-21T00:09:37.898Z,13.20
2023-03-21T00:11:39.427Z,13.16
2023-03-21T00:13:42.340Z,13.15
2023-03-21T00:15:54.128Z,13.13
2023-03-21T00:18:05.391Z,13.15
2023-03-21T00:20:08.080Z,13.12
2023-03-21T00:22:09.665Z,13.08
2023-03-21T00:24:11.331Z,13.04
2023-03-21T00:26:14.078Z,13.00
2023-03-21T00:28:15.786Z,13.00
2023-03-21T00:30:18.893Z,13.01
2023-03-21T00:32:21.565Z,12.97
2023-03-21T00:34:31.918Z,12.94
2023-03-21T00:36:44.721Z,12.87
2023-03-21T00:38:46.329Z,12.89
2023-03-21T00:40:49.263Z,12.88
2023-03-21T00:42:50.944Z,12.90
2023-03-21T00:44:52.526Z,12.75
2023-03-21T00:47:06.519Z,12.81
2023-03-21T00:49:08.373Z,12.78
2023-03-21T00:51:18.711Z,12.77
2023-03-21T00:53:21.210Z,12.77
2023-03-21T00:55:23.196Z,12.74
2023-03-21T00:57:38.140Z,12.75
2023-03-21T00:59:41.083Z,12.72
2023-03-21T01:01:43.012Z,12.69
2023-03-21T01:03:45.930Z,12.70
2023-03-21T01:05:48.965Z,12.69
2023-03-21T01:07:50.506Z,12.70
2023-03-21T01:09:52.078Z,12.71
2023-03-21T01:11:53.685Z,12.71
2023-03-21T01:14:04.260Z,12.76
2023-03-21T01:16:12.948Z,12.75
2023-03-21T01:18:15.896Z,12.80
2023-03-21T01:20:19.370Z,12.80
2023-03-21T01:22:20.901Z,12.80
2023-03-21T01:24:22.635Z,12.76
2023-03-21T01:26:24.138Z,12.83
2023-03-21T01:28:27.681Z,12.94
2023-03-21T01:30:33.906Z,12.90
2023-03-21T01:32:38.399Z,12.98
2023-03-21T01:34:42.046Z,12.88
2023-03-21T01:36:45.077Z,12.92
2023-03-21T01:38:46.673Z,12.87
2023-03-21T01:40:49.800Z,12.89
2023-03-21T01:42:51.632Z,12.85
2023-03-21T01:44:55.710Z,12.89
2023-03-21T01:47:09.953Z,12.97
2023-03-21T01:49:17.483Z,12.95
2023-03-21T01:51:19.772Z,12.83
2023-03-21T01:53:27.255Z,12.83
2023-03-21T01:55:29.057Z,12.83
2023-03-21T01:57:42.350Z,12.84
2023-03-21T01:59:49.833Z,12.87
2023-03-21T02:01:52.644Z,12.86
2023-03-21T02:03:54.501Z,12.83
2023-03-21T02:06:00.864Z,12.80
2023-03-21T02:08:02.597Z,12.79
2023-03-21T02:10:08.606Z,12.80
2023-03-21T02:12:10.250Z,12.83
2023-03-21T02:14:20.122Z,12.80
2023-03-21T02:16:32.560Z,12.85
2023-03-21T02:18:41.301Z,12.83
2023-03-21T02:21:08.936Z,12.79
2023-03-21T02:23:41.246Z,12.79
2023-03-21T02:26:36.107Z,12.74
2023-03-21T02:28:47.010Z,12.72
2023-03-21T02:31:08.750Z,12.70
2023-03-21T02:34:01.923Z,12.69
2023-03-21T02:36:16.674Z,12.68
2023-03-21T02:38:24.578Z,12.74
2023-03-21T02:40:32.947Z,12.72
2023-03-21T02:42:48.883Z,12.69
2023-03-21T02:45:00.481Z,12.70
2023-03-21T02:47:07.966Z,12.66
2023-03-21T02:49:15.766Z,12.67
2023-03-21T02:51:20.957Z,12.68
2023-03-21T02:53:28.353Z,12.66
2023-03-21T02:55:32.365Z,12.66
2023-03-21T02:57:42.636Z,12.64
2023-03-21T02:59:53.834Z,12.62
2023-03-21T03:01:58.602Z,12.69
2023-03-21T03:04:00.314Z,12.65
2023-03-21T03:06:03.916Z,12.63
2023-03-21T03:08:17.663Z,12.57
2023-03-21T03:10:30.988Z,12.51
2023-03-21T03:12:43.035Z,12.51
2023-03-21T03:15:03.205Z,12.50
2023-03-21T03:17:22.463Z,12.50
2023-03-21T03:19:27.837Z,12.43
2023-03-21T03:21:38.001Z,12.45
2023-03-21T03:23:44.816Z,12.43
2023-03-21T03:25:55.261Z,12.45
2023-03-21T03:28:00.752Z,12.40
2023-03-21T03:30:05.656Z,12.39
2023-03-21T03:32:11.835Z,12.36
2023-03-21T03:34:17.649Z,12.40
2023-03-21T03:36:31.732Z,12.47
2023-03-21T03:38:36.856Z,12.47
2023-03-21T03:40:41.288Z,12.41
2023-03-21T03:42:47.855Z,12.39
2023-03-21T03:44:49.814Z,12.41
2023-03-21T03:46:56.721Z,12.39
2023-03-21T03:49:02.170Z,12.48
2023-03-21T03:51:09.633Z,12.53
2023-03-21T03:53:19.688Z,12.52
2023-03-21T03:55:23.562Z,12.41
2023-03-21T03:57:26.257Z,12.37
2023-03-21T03:59:29.205Z,12.35
2023-03-21T04:01:31.295Z,12.33
2023-03-21T04:03:47.657Z,12.33
2023-03-21T04:05:50.366Z,12.38
2023-03-21T04:07:52.170Z,12.40
2023-03-21T04:09:53.746Z,12.37
2023-03-21T04:11:55.419Z,12.34
2023-03-21T04:13:57.019Z,12.32
2023-03-21T04:16:00.128Z,12.35
2023-03-21T04:18:02.106Z,12.36
2023-03-21T04:20:11.331Z,12.32
2023-03-21T04:22:14.612Z,12.33
2023-03-21T04:24:16.187Z,12.36
2023-03-21T04:26:17.866Z,12.41
2023-03-21T04:28:19.464Z,12.40
2023-03-21T04:30:21.440Z,12.32
2023-03-21T04:32:24.536Z,12.35
2023-03-21T04:34:26.327Z,12.34
2023-03-21T04:36:28.618Z,12.31
2023-03-21T04:38:30.169Z,12.29
2023-03-21T04:40:31.816Z,12.32
2023-03-21T04:42:34.264Z,12.28
2023-03-21T04:44:35.906Z,12.29
2023-03-21T04:46:38.582Z,12.29
2023-03-21T04:48:41.821Z,12.26
2023-03-21T04:50:43.689Z,12.28
2023-03-21T04:52:45.267Z,12.36
2023-03-21T04:54:46.945Z,12.27
2023-03-21T04:56:48.497Z,12.15
2023-03-21T04:58:50.199Z,12.09
2023-03-21T05:00:51.908Z,12.19
2023-03-21T05:02:53.492Z,12.09
2023-03-21T05:04:56.756Z,12.09
2023-03-21T05:06:58.775Z,12.11
2023-03-21T05:09:04.416Z,12.08
2023-03-21T05:11:06.480Z,12.07
2023-03-21T05:13:08.494Z,12.08
2023-03-21T05:15:10.318Z,12.10
2023-03-21T05:17:11.940Z,12.10
2023-03-21T05:19:13.698Z,12.06
2023-03-21T05:21:16.911Z,12.05
2023-03-21T05:23:18.605Z,11.99
2023-03-21T05:25:20.243Z,12.00
2023-03-21T05:27:23.051Z,11.99
2023-03-21T05:29:24.699Z,12.02
2023-03-21T05:31:26.265Z,12.09
2023-03-21T05:33:27.847Z,12.07
2023-03-21T05:35:29.868Z,11.98
2023-03-21T05:37:32.847Z,11.95
2023-03-21T05:39:34.357Z,11.87
2023-03-21T05:41:35.953Z,11.87
2023-03-21T05:43:37.559Z,11.84
2023-03-21T05:45:39.291Z,11.83
2023-03-21T05:47:41.578Z,11.81
2023-03-21T05:49:43.594Z,11.81
2023-03-21T05:51:45.174Z,11.80
2023-03-21T05:53:48.347Z,11.86
2023-03-21T05:55:50.013Z,11.87
2023-03-21T05:57:51.576Z,11.82
2023-03-21T05:59:53.234Z,11.83
2023-03-21T06:01:54.874Z,11.78
2023-03-21T06:03:56.603Z,11.84
2023-03-21T06:05:58.297Z,11.84
2023-03-21T06:07:59.910Z,11.86
2023-03-21T06:10:03.945Z,11.85
2023-03-21T06:12:06.211Z,11.85
2023-03-21T06:14:07.880Z,11.82
2023-03-21T06:16:09.617Z,11.81
2023-03-21T06:18:11.327Z,11.81
2023-03-21T06:20:13.459Z,11.80
2023-03-21T06:22:14.991Z,11.82
2023-03-21T06:24:16.627Z,11.80
2023-03-21T06:26:19.780Z,11.83
2023-03-21T06:28:21.301Z,11.85
2023-03-21T06:30:23.276Z,11.90
2023-03-21T06:32:25.117Z,11.89
2023-03-21T06:34:26.671Z,11.94
2023-03-21T06:36:28.227Z,12.02
2023-03-21T06:38:29.876Z,12.10
2023-03-21T06:40:31.586Z,12.15
2023-03-21T06:42:34.542Z,12.24
2023-03-21T06:44:36.360Z,12.35
2023-03-21T06:46:38.104Z,12.36
2023-03-21T06:48:39.755Z,12.44
2023-03-21T06:50:41.333Z,12.58
2023-03-21T06:52:42.985Z,12.54
2023-03-21T06:54:44.623Z,12.57
2023-03-21T06:56:46.278Z,12.57
2023-03-21T06:58:49.213Z,12.60
2023-03-21T07:00:50.901Z,12.61
2023-03-21T07:02:52.736Z,12.60
2023-03-21T07:04:54.650Z,12.61
2023-03-21T07:06:56.303Z,12.58
2023-03-21T07:08:57.978Z,12.54
2023-03-21T07:10:59.662Z,12.60
2023-03-21T07:13:01.553Z,12.65
2023-03-21T07:15:06.623Z,12.72
2023-03-21T07:17:08.193Z,12.85
2023-03-21T07:19:09.796Z,12.96
2023-03-21T07:21:11.420Z,13.04
2023-03-21T07:23:13.051Z,13.08
2023-03-21T07:25:14.909Z,13.16
2023-03-21T07:27:18.179Z,13.18
2023-03-21T07:29:19.773Z,13.21
2023-03-21T07:31:22.840Z,13.29
2023-03-21T07:33:24.996Z,13.33
2023-03-21T07:35:26.754Z,13.37
2023-03-21T07:37:28.387Z,13.39
2023-03-21T07:39:29.978Z,13.46
2023-03-21T07:41:31.596Z,13.44
2023-03-21T07:43:33.320Z,13.48
2023-03-21T07:45:35.029Z,13.51
2023-03-21T07:47:38.275Z,13.58
2023-03-21T07:49:40.068Z,13.58
2023-03-21T07:51:41.653Z,13.63
2023-03-21T07:53:43.225Z,13.59
2023-03-21T07:55:44.868Z,13.59
2023-03-21T07:57:49.224Z,13.61
2023-03-21T07:59:50.748Z,13.71
2023-03-21T08:01:52.518Z,13.77
2023-03-21T08:03:55.549Z,13.93
2023-03-21T08:05:58.867Z,14.01
2023-03-21T08:08:00.694Z,14.07
2023-03-21T08:10:02.296Z,14.08
2023-03-21T08:12:04.499Z,14.27
2023-03-21T08:14:06.277Z,14.25
2023-03-21T08:16:08.634Z,14.31
2023-03-21T08:18:10.833Z,14.31
2023-03-21T08:20:15.579Z,14.38
2023-03-21T08:22:17.395Z,14.42
2023-03-21T08:24:19.174Z,14.55
2023-03-21T08:26:20.777Z,14.73
2023-03-21T08:28:23.077Z,14.70
2023-03-21T08:30:26.788Z,14.87
2023-03-21T08:32:28.599Z,15.16
2023-03-21T08:34:30.360Z,15.20
2023-03-21T08:36:35.223Z,15.22
2023-03-21T08:38:36.869Z,15.25
2023-03-21T08:40:38.559Z,15.24
2023-03-21T08:42:41.448Z,15.24
2023-03-21T08:44:43.034Z,15.23
2023-03-21T08:46:44.762Z,15.17
2023-03-21T08:48:46.381Z,15.19
2023-03-21T08:50:48.368Z,15.19
2023-03-21T08:52:51.317Z,15.17
2023-03-21T08:54:52.900Z,15.18
2023-03-21T08:56:54.602Z,15.11
2023-03-21T08:58:56.175Z,15.21
2023-03-21T09:00:57.784Z,15.16
2023-03-21T09:02:59.532Z,15.23
2023-03-21T09:05:01.204Z,15.27
2023-03-21T09:07:02.886Z,15.31
2023-03-21T09:09:06.112Z,15.34
2023-03-21T09:11:08.376Z,15.31
2023-03-21T09:13:10.058Z,15.38
2023-03-21T09:15:12.887Z,15.45
2023-03-21T09:17:14.471Z,15.54
2023-03-21T09:19:16.024Z,15.53
2023-03-21T09:21:18.408Z,15.54
2023-03-21T09:23:20.000Z,15.54
2023-03-21T09:25:23.069Z,15.52
2023-03-21T09:27:34.829Z,15.46
2023-03-21T09:29:36.591Z,15.36
2023-03-21T09:31:38.403Z,15.29
2023-03-21T09:33:40.239Z,15.29
2023-03-21T09:35:42.125Z,15.35
2023-03-21T09:37:43.861Z,15.37
2023-03-21T09:39:45.496Z,15.46
2023-03-21T09:42:10.801Z,15.52
2023-03-21T09:55:38.667Z,15.48
2023-03-21T09:57:44.078Z,15.54
2023-03-21T09:59:48.392Z,15.52
2023-03-21T10:01:50.150Z,15.61
2023-03-21T10:03:51.737Z,15.60
2023-03-21T10:05:54.972Z,15.62
2023-03-21T10:08:01.906Z,15.66
2023-03-21T10:10:04.370Z,15.72
2023-03-21T10:12:12.049Z,15.80
2023-03-21T10:14:20.262Z,15.87
2023-03-21T10:16:27.538Z,15.91
2023-03-21T10:18:30.998Z,15.97
2023-03-21T10:20:35.107Z,16.00
2023-03-21T10:22:36.783Z,16.03
2023-03-21T10:24:38.583Z,16.10
2023-03-21T10:26:40.640Z,16.13
2023-03-21T10:28:52.498Z,16.16
2023-03-21T10:30:58.658Z,16.19
2023-03-21T10:33:03.844Z,16.10
2023-03-21T10:35:07.430Z,16.03
2023-03-21T10:37:12.925Z,15.99
2023-03-21T10:39:24.861Z,16.07
2023-03-21T10:41:26.471Z,16.11
2023-03-21T10:43:34.264Z,16.12
2023-03-21T10:45:36.029Z,16.06
2023-03-21T10:47:39.776Z,16.06
2023-03-21T10:50:05.842Z,16.08
2023-03-21T10:52:07.199Z,16.00
2023-03-21T10:54:13.847Z,15.95
2023-03-21T10:56:15.699Z,15.96
2023-03-21T10:58:20.872Z,16.01
2023-03-21T11:00:25.953Z,16.03
2023-03-21T11:02:32.926Z,16.11
2023-03-21T11:04:37.319Z,16.12
2023-03-21T11:06:41.523Z,16.15
2023-03-21T11:08:47.080Z,16.26
2023-03-21T11:10:53.452Z,16.09
2023-03-21T11:12:56.945Z,16.09
2023-03-21T11:15:24.667Z,16.08
2023-03-21T11:17:29.535Z,16.00
2023-03-21T11:19:33.156Z,16.03
2023-03-21T11:21:37.555Z,16.06
2023-03-21T11:23:42.097Z,16.00
2023-03-21T11:25:43.762Z,15.98
2023-03-21T11:27:48.439Z,16.01
2023-03-21T11:29:51.038Z,16.08
2023-03-21T11:31:53.463Z,16.06
2023-03-21T11:33:56.572Z,16.10
2023-03-21T11:36:00.266Z,16.12
2023-03-21T11:38:04.225Z,16.23
2023-03-21T11:40:18.095Z,16.26
2023-03-21T11:42:29.179Z,16.30
2023-03-21T11:44:33.292Z,16.32
2023-03-21T11:46:40.528Z,16.39
2023-03-21T11:48:44.907Z,16.35
2023-03-21T11:50:50.257Z,16.42
2023-03-21T11:53:07.293Z,16.43
2023-03-21T11:55:24.713Z,16.48
2023-03-21T11:57:35.624Z,16.53
2023-03-21T11:59:47.161Z,16.57
2023-03-21T12:02:03.483Z,16.57
2023-03-21T12:04:20.099Z,16.60
2023-03-21T12:06:28.353Z,16.58
2023-03-21T12:08:41.831Z,16.61
2023-03-21T12:10:49.543Z,16.59
2023-03-21T12:12:58.747Z,16.63
2023-03-21T12:15:05.912Z,16.59
2023-03-21T12:17:21.631Z,16.61
2023-03-21T12:19:59.513Z,16.71
2023-03-21T12:22:10.478Z,16.68
2023-03-21T12:24:18.109Z,16.75
2023-03-21T12:26:24.467Z,16.81
2023-03-21T12:28:37.106Z,17.04
2023-03-21T12:30:49.205Z,17.18
2023-03-21T12:33:10.245Z,17.22
2023-03-21T12:35:25.921Z,17.26
2023-03-21T12:37:37.047Z,17.36
2023-03-21T12:39:41.229Z,17.46
2023-03-21T12:41:45.595Z,17.46
2023-03-21T12:43:50.689Z,17.56
2023-03-21T12:45:56.718Z,17.48
2023-03-21T12:48:04.620Z,17.41
2023-03-21T12:50:15.213Z,17.40
2023-03-21T12:52:21.977Z,17.45
2023-03-21T12:54:28.625Z,17.49
2023-03-21T12:56:34.884Z,17.45
2023-03-21T12:58:45.535Z,17.43
2023-03-21T13:00:49.929Z,17.46
2023-03-21T13:02:55.866Z,17.46
2023-03-21T13:05:03.238Z,17.36
2023-03-21T13:07:09.454Z,17.34
2023-03-21T13:09:21.246Z,17.39
2023-03-21T13:11:29.426Z,17.33
2023-03-21T13:13:36.716Z,17.32
2023-03-21T13:16:09.307Z,17.26
2023-03-21T13:18:17.535Z,17.24
2023-03-21T13:20:25.888Z,17.23
2023-03-21T13:22:29.351Z,17.18
2023-03-21T13:24:37.918Z,17.19
2023-03-21T13:26:42.144Z,17.13
2023-03-21T13:28:49.833Z,17.15
2023-03-21T13:30:51.837Z,17.19
2023-03-21T13:33:04.724Z,17.22
2023-03-21T13:35:16.200Z,17.24
2023-03-21T13:37:19.672Z,17.18
2023-03-21T13:39:26.725Z,17.20
2023-03-21T13:41:31.948Z,17.14
2023-03-21T13:43:43.139Z,17.14
2023-03-21T13:45:51.860Z,17.14
2023-03-21T13:47:54.767Z,17.18
2023-03-21T13:50:26.692Z,17.16
2023-03-21T13:52:28.581Z,17.08
2023-03-21T13:54:45.811Z,17.11
2023-03-21T13:56:52.915Z,17.13
2023-03-21T13:59:02.806Z,17.18
2023-03-21T14:01:16.742Z,17.15
2023-03-21T14:03:18.461Z,17.11
2023-03-21T14:05:22.304Z,17.06
2023-03-21T14:07:27.792Z,17.05
2023-03-21T14:09:33.614Z,17.06
2023-03-21T14:11:36.953Z,16.98
2023-03-21T14:13:50.905Z,17.02
2023-03-21T14:15:57.483Z,17.00
2023-03-21T14:18:10.811Z,16.91
2023-03-21T14:20:25.347Z,16.86
2023-03-21T14:22:27.073Z,16.84
2023-03-21T14:24:28.745Z,16.80
2023-03-21T14:26:33.284Z,16.76
2023-03-21T14:28:34.902Z,16.66
2023-03-21T14:30:38.308Z,16.74
2023-03-21T14:32:40.556Z,16.73
2023-03-21T14:34:45.165Z,16.73
2023-03-21T14:36:55.429Z,16.66
2023-03-21T14:39:05.719Z,16.68
2023-03-21T14:41:21.819Z,16.69
2023-03-21T14:43:24.320Z,16.72
2023-03-21T14:45:27.734Z,16.65
2023-03-21T14:47:30.044Z,16.74
2023-03-21T14:49:33.135Z,16.72
2023-03-21T14:51:36.256Z,16.66
2023-03-21T14:53:40.636Z,16.65
2023-03-21T14:55:44.078Z,16.62
2023-03-21T14:57:45.940Z,16.61
2023-03-21T14:59:50.106Z,16.63
2023-03-21T15:01:54.490Z,16.58
2023-03-21T15:04:00.452Z,16.50
2023-03-21T15:06:02.232Z,16.45
2023-03-21T15:08:08.683Z,16.38
2023-03-21T15:10:16.246Z,16.28
2023-03-21T15:12:17.893Z,16.14
2023-03-21T15:14:24.195Z,16.06
2023-03-21T15:16:25.960Z,15.97
2023-03-21T15:18:29.922Z,15.99
2023-03-21T15:20:36.278Z,16.00
2023-03-21T15:22:40.972Z,15.99
2023-03-21T15:24:51.504Z,15.99
2023-03-21T15:27:00.291Z,16.00
2023-03-21T15:29:01.961Z,15.97
2023-03-21T15:31:05.157Z,16.04
2023-03-21T15:33:09.654Z,16.02
2023-03-21T15:35:16.166Z,16.05
2023-03-21T15:37:23.174Z,16.08
2023-03-21T15:39:27.523Z,16.08
2023-03-21T15:41:32.200Z,16.06
2023-03-21T15:43:39.699Z,16.04
2023-03-21T15:45:47.992Z,16.01
2023-03-21T15:47:55.410Z,16.00
2023-03-21T15:49:57.193Z,16.06
2023-03-21T15:52:11.449Z,16.01
2023-03-21T15:54:16.361Z,16.01
2023-03-21T15:56:18.101Z,16.00
2023-03-21T15:58:23.755Z,16.01
2023-03-21T16:00:33.807Z,16.04
2023-03-21T16:02:35.419Z,16.00
2023-03-21T16:04:55.458Z,15.99
2023-03-21T16:07:00.119Z,16.03
2023-03-21T16:09:16.312Z,15.96
2023-03-21T16:11:23.316Z,15.98
2023-03-21T16:13:26.322Z,15.98
2023-03-21T16:15:28.184Z,15.94
2023-03-21T16:17:33.372Z,15.91
2023-03-21T16:19:34.938Z,15.82
2023-03-21T16:21:38.298Z,15.78
2023-03-21T16:23:40.068Z,15.79
2023-03-21T16:25:42.441Z,15.79
2023-03-21T16:27:44.268Z,15.87
2023-03-21T16:29:47.296Z,15.85
2023-03-21T16:31:49.196Z,15.85
2023-03-21T16:33:50.964Z,15.86
2023-03-21T16:35:54.971Z,15.94
2023-03-21T16:37:56.593Z,15.93
2023-03-21T16:39:58.318Z,15.94
2023-03-21T16:42:00.046Z,15.93
2023-03-21T16:44:01.892Z,15.92
2023-03-21T16:46:05.225Z,15.90
2023-03-21T16:48:07.251Z,15.90
2023-03-21T16:50:22.438Z,15.89
2023-03-21T16:52:26.317Z,15.88
2023-03-21T16:54:28.117Z,15.94
2023-03-21T16:56:38.372Z,15.96
2023-03-21T16:58:39.929Z,15.96
2023-03-21T17:00:41.601Z,15.98
2023-03-21T17:02:44.598Z,16.01
2023-03-21T17:04:46.267Z,16.05
2023-03-21T17:06:50.061Z,15.96
2023-03-21T17:08:52.387Z,15.92
2023-03-21T17:10:54.324Z,15.84
2023-03-21T17:13:01.561Z,15.78
2023-03-21T17:15:10.001Z,15.71
2023-03-21T17:17:29.867Z,15.78
2023-03-21T17:19:41.554Z,15.73
2023-03-21T17:22:14.412Z,15.70
2023-03-21T17:37:52.901Z,15.42
2023-03-21T17:39:54.456Z,15.43
2023-03-21T17:41:56.243Z,15.39
2023-03-21T17:43:58.002Z,15.38
2023-03-21T17:45:59.677Z,15.39
2023-03-21T17:48:01.328Z,15.40
2023-03-21T17:50:03.149Z,15.39
2023-03-21T17:52:05.189Z,15.36
2023-03-21T17:54:08.285Z,15.34
2023-03-21T17:56:13.917Z,15.32
2023-03-21T17:58:15.598Z,15.36
2023-03-21T18:00:19.560Z,15.33
2023-03-21T18:02:21.387Z,15.27
2023-03-21T18:04:25.389Z,15.24
2023-03-21T18:06:27.049Z,15.25
2023-03-21T18:08:28.812Z,15.20
2023-03-21T18:10:32.480Z,15.16
2023-03-21T18:12:34.145Z,15.11
2023-03-21T18:14:40.383Z,15.06
2023-03-21T18:16:42.414Z,15.06
2023-03-21T18:18:44.194Z,15.05
2023-03-21T18:20:52.286Z,15.04
2023-03-21T18:22:55.492Z,14.99
2023-03-21T18:24:57.163Z,14.99
2023-03-21T18:27:00.272Z,15.01
2023-03-21T18:31:23.920Z,14.99
2023-03-21T18:33:25.970Z,14.94
2023-03-21T18:35:27.813Z,14.89
2023-03-21T18:37:30.445Z,14.89
2023-03-21T18:39:32.826Z,14.86
2023-03-21T18:41:34.509Z,14.84
2023-03-21T18:46:00.053Z,14.80
2023-03-21T18:48:01.736Z,14.84
2023-03-21T18:50:14.279Z,14.83
2023-03-21T18:52:16.622Z,14.80
2023-03-21T18:54:18.425Z,14.80
2023-03-21T18:57:13.040Z,14.78
2023-03-21T18:58:43.147Z,14.72
2023-03-21T19:00:44.880Z,14.73
2023-03-21T19:02:50.828Z,14.68
2023-03-21T19:04:52.749Z,14.66
2023-03-21T19:06:54.413Z,14.63
2023-03-21T19:08:56.036Z,14.61
2023-03-21T19:11:00.147Z,14.57
2023-03-21T19:13:03.166Z,14.51
2023-03-21T19:15:07.401Z,14.46
2023-03-21T19:18:06.566Z,14.45
2023-03-21T19:19:30.625Z,14.39
2023-03-21T19:21:32.809Z,14.40
2023-03-21T19:24:00.826Z,14.43
2023-03-21T19:25:56.981Z,14.45
2023-03-21T19:27:58.590Z,14.42
2023-03-21T19:30:13.585Z,14.42
2023-03-21T19:32:17.719Z,14.43
2023-03-21T19:34:19.920Z,14.44
2023-03-21T19:36:23.311Z,14.45
2023-03-21T19:38:25.304Z,14.51
2023-03-21T19:40:26.886Z,14.55
2023-03-21T19:42:30.699Z,14.56
2023-03-21T19:44:32.517Z,14.53
2023-03-21T19:46:34.117Z,14.54
2023-03-21T19:48:40.208Z,14.55
2023-03-21T19:51:20.266Z,14.57
2023-03-21T19:53:03.558Z,14.62
2023-03-21T19:55:06.160Z,14.63
2023-03-21T19:57:07.702Z,14.67
2023-03-21T19:59:09.305Z,14.69
2023-03-21T20:01:11.032Z,14.68
2023-03-21T20:03:12.724Z,14.64
2023-03-21T20:05:16.801Z,14.60
2023-03-21T20:07:18.511Z,14.56
2023-03-21T20:11:41.700Z,14.55
2023-03-21T20:13:43.463Z,14.54
2023-03-21T20:15:48.204Z,14.53
2023-03-21T20:17:50.478Z,14.47
2023-03-21T20:19:52.169Z,14.49
2023-03-21T20:21:59.808Z,14.48
2023-03-21T20:24:04.355Z,14.50
2023-03-21T20:26:10.024Z,14.48
2023-03-21T20:28:16.871Z,14.47
2023-03-21T20:30:27.186Z,14.40
2023-03-21T20:32:28.798Z,14.38
2023-03-21T20:34:30.724Z,14.34
2023-03-21T20:36:40.026Z,14.39
2023-03-21T20:38:44.375Z,14.44
2023-03-21T20:40:45.943Z,14.44
2023-03-21T20:42:48.818Z,14.41
2023-03-21T20:44:58.812Z,14.35
2023-03-21T20:47:00.903Z,14.34
2023-03-21T20:49:02.596Z,14.33
2023-03-21T20:51:54.958Z,14.27
2023-03-21T20:53:29.330Z,14.24
2023-03-21T20:55:32.247Z,14.22
2023-03-21T20:57:34.337Z,14.23
2023-03-21T20:59:36.460Z,14.26
2023-03-21T21:01:38.096Z,14.22
2023-03-21T21:03:40.172Z,14.20
2023-03-21T21:05:45.046Z,14.19
2023-03-21T21:07:46.949Z,14.17
2023-03-21T21:09:49.260Z,14.16
2023-03-21T21:12:09.304Z,14.15
2023-03-21T21:14:11.222Z,14.16
2023-03-21T21:16:13.894Z,14.21
2023-03-21T21:18:15.479Z,14.25
2023-03-21T21:20:17.233Z,14.21
2023-03-21T21:22:19.268Z,14.21
2023-03-21T21:24:23.993Z,14.22
2023-03-21T21:26:25.862Z,14.26
2023-03-21T21:28:30.170Z,14.25
2023-03-21T21:30:31.843Z,14.30
2023-03-21T21:32:33.953Z,14.17
2023-03-21T21:34:35.564Z,14.09
2023-03-21T21:36:37.327Z,13.99
2023-03-21T21:38:39.827Z,13.90
2023-03-21T21:40:41.502Z,13.92
2023-03-21T21:42:44.195Z,13.97
2023-03-21T21:44:47.137Z,13.94
2023-03-21T21:46:48.769Z,13.92
2023-03-21T21:48:50.424Z,13.91
2023-03-21T21:50:52.139Z,13.98
2023-03-21T21:52:53.803Z,14.01
2023-03-21T21:54:55.456Z,13.90
2023-03-21T21:56:57.093Z,13.85
2023-03-21T21:58:59.414Z,13.81
2023-03-21T22:01:02.627Z,13.80
2023-03-21T22:03:04.470Z,13.78
2023-03-21T22:05:06.651Z,13.80
2023-03-21T22:07:08.664Z,13.79
2023-03-21T22:09:10.727Z,13.79
2023-03-21T22:11:13.656Z,13.78
2023-03-21T22:13:15.262Z,13.80
2023-03-21T22:15:17.424Z,13.78
2023-03-21T22:17:20.514Z,13.78
2023-03-21T22:19:22.160Z,13.79
2023-03-21T22:21:23.864Z,13.82
2023-03-21T22:23:25.605Z,13.79
2023-03-21T22:25:27.316Z,13.72
2023-03-21T22:27:29.166Z,13.72
2023-03-21T22:29:30.869Z,13.70
2023-03-21T22:31:32.520Z,13.75
2023-03-21T22:33:35.753Z,13.72
2023-03-21T22:35:37.702Z,13.75
2023-03-21T22:37:41.207Z,13.72
2023-03-21T22:39:42.780Z,13.66
2023-03-21T22:41:44.913Z,13.66
2023-03-21T22:43:46.603Z,13.64
2023-03-21T22:45:48.306Z,13.65
2023-03-21T22:47:49.980Z,13.62
2023-03-21T22:49:53.329Z,13.62
2023-03-21T22:51:58.028Z,13.69
2023-03-21T22:53:59.875Z,13.73
2023-03-21T22:56:01.493Z,13.73
2023-03-21T22:58:03.373Z,13.73
2023-03-21T23:00:07.301Z,13.65
2023-03-21T23:02:09.337Z,13.61
2023-03-21T23:04:11.064Z,13.54
2023-03-21T23:06:14.249Z,13.48
2023-03-21T23:08:15.926Z,13.45
2023-03-21T23:10:17.972Z,13.55
2023-03-21T23:12:19.584Z,13.62
2023-03-21T23:14:22.049Z,13.58
2023-03-21T23:16:23.745Z,13.66
2023-03-21T23:18:25.701Z,13.73
2023-03-21T23:20:27.447Z,13.73
2023-03-21T23:22:31.664Z,13.77
2023-03-21T23:24:33.489Z,13.70
2023-03-21T23:26:35.283Z,13.72
2023-03-21T23:28:37.887Z,13.76
2023-03-21T23:30:39.819Z,13.80
2023-03-21T23:32:41.914Z,13.76
2023-03-21T23:34:46.570Z,13.72
2023-03-21T23:36:48.272Z,13.74
2023-03-21T23:38:51.358Z,13.71
2023-03-21T23:40:53.019Z,13.75
2023-03-21T23:42:54.723Z,13.77
2023-03-21T23:44:56.415Z,13.78
2023-03-21T23:46:58.141Z,13.78
2023-03-21T23:48:59.740Z,13.77
2023-03-21T23:51:01.611Z,13.79
2023-03-21T23:53:03.379Z,13.82
2023-03-21T23:55:07.313Z,13.83
2023-03-21T23:57:09.027Z,13.85
2023-03-21T23:59:10.702Z,13.90
